Terminal Aerodrome Forecast
Issued by NWS

Home | Current Version | Previous Version | Text Only | Print | Product List | Glossary On
Versions: 1 2 3 4 5 6 7 8 9 10 11 12 13 14 15 16 17 18 19 20 21 22
181
FTUS43 KIND 231132
TAFHUF
TAF
KHUF 231132Z 2312/2412 18005KT 4SM BR VCSH OVC003
     FM231600 24009KT 5SM BR OVC003
     FM232300 28005KT P6SM OVC020
     FM240300 34004KT P6SM OVC015
     FM240600 01004KT 4SM RA BR OVC015
     FM240900 03007KT 2SM RA BR OVC008=

USA.gov is the U.S. government's official web portal to all federal, state and local government web resources and services.